Time;durP1;ratioP1;P1;durP2;ratioP2;P2;SDS_P1;SDS_P2;PMS_P1;PMS_P2;Temp;Humidity;BMP_temperature;BMP_pressure;BME280_temperature;BME280_humidity;BME280_pressure;Samples;Min_cycle;Max_cycle;Signal;HPM_P1;HPM_P2
2023/04/16 00:01:48;;;;;;;30.38;23.67;;;;;;;12.45;62.73;99927.22;5013070;28;98595;-82
2023/04/16 00:04:14;;;;;;;26.50;23.70;;;;;;;12.37;63.49;99940.72;5045431;27;101333;-82
2023/04/16 00:06:40;;;;;;;27.42;24.50;;;;;;;12.38;63.10;99947.69;5013156;28;97078;-82
2023/04/16 00:09:05;;;;;;;29.05;24.00;;;;;;;12.27;63.18;99939.44;5033530;27;97082;-82
2023/04/16 00:11:31;;;;;;;26.45;23.88;;;;;;;12.45;63.07;99949.13;5032737;28;101745;-84
2023/04/16 00:13:56;;;;;;;26.75;23.90;;;;;;;12.34;63.10;99935.63;5033681;28;101614;-81
2023/04/16 00:16:22;;;;;;;26.88;24.05;;;;;;;12.34;63.22;99951.41;4998337;28;97033;-82
2023/04/16 00:18:47;;;;;;;28.20;25.05;;;;;;;12.32;62.94;99936.63;5005576;28;97210;-82
2023/04/16 00:21:13;;;;;;;28.33;25.42;;;;;;;12.35;62.98;99932.03;5000295;28;102203;-82
2023/04/16 00:23:38;;;;;;;30.58;26.67;;;;;;;12.31;63.26;99942.81;5013861;28;101036;-83
2023/04/16 00:26:04;;;;;;;31.17;27.95;;;;;;;12.32;63.26;99934.81;5000214;28;97341;-80
2023/04/16 00:28:29;;;;;;;34.00;27.15;;;;;;;12.24;63.23;99929.91;5014722;28;96910;-82
2023/04/16 00:30:55;;;;;;;31.02;27.77;;;;;;;12.29;63.39;99939.38;5013675;28;98384;-82
2023/04/16 00:33:22;;;;;;;31.67;28.38;;;;;;;12.21;63.59;99930.06;5015886;28;101337;-83
2023/04/16 00:35:47;;;;;;;31.55;28.35;;;;;;;12.14;63.47;99941.81;5012860;28;97070;-83
2023/04/16 00:38:13;;;;;;;34.28;29.48;;;;;;;12.11;63.91;99941.09;5016952;28;96941;-82
2023/04/16 00:40:39;;;;;;;33.33;29.73;;;;;;;12.20;63.74;99941.53;5016020;28;101295;-82
2023/04/16 00:43:04;;;;;;;31.00;27.80;;;;;;;12.25;63.12;99941.31;5016505;28;100906;-82
2023/04/16 00:45:30;;;;;;;32.00;27.38;;;;;;;12.16;63.56;99942.59;4999931;28;96781;-82
2023/04/16 00:47:56;;;;;;;31.73;28.42;;;;;;;12.10;64.07;99944.63;5016878;28;96864;-83
2023/04/16 00:50:22;;;;;;;33.60;29.13;;;;;;;11.93;64.06;99922.63;5015456;28;101503;-84
2023/04/16 00:52:48;;;;;;;31.83;28.67;;;;;;;11.99;64.10;99948.63;5010101;28;101450;-83
2023/04/16 00:55:16;;;;;;;32.20;28.92;;;;;;;11.97;64.20;99950.47;5014790;28;97159;-83
2023/04/16 00:57:42;;;;;;;30.52;27.38;;;;;;;11.91;64.17;99939.38;5030773;27;96931;-83
2023/04/16 01:00:08;;;;;;;30.60;27.40;;;;;;;11.94;63.91;99949.75;5033269;27;100988;-83
2023/04/16 01:02:34;;;;;;;30.75;27.42;;;;;;;11.93;63.63;99955.97;5019148;28;101389;-87
2023/04/16 01:05:00;;;;;;;28.52;25.73;;;;;;;11.80;63.58;99945.09;4985194;28;97521;-83
2023/04/16 01:07:26;;;;;;;28.23;25.33;;;;;;;11.74;63.66;99943.59;5030002;28;97311;-84
2023/04/16 01:09:51;;;;;;;28.02;25.33;;;;;;;11.78;63.56;99950.44;5014304;28;98805;-84
2023/04/16 01:12:17;;;;;;;28.70;25.90;;;;;;;11.57;64.26;99948.75;5029826;27;101458;-82
2023/04/16 01:14:42;;;;;;;27.60;24.77;;;;;;;11.51;64.29;99956.91;5001804;28;97220;-82
2023/04/16 01:17:08;;;;;;;28.58;25.67;;;;;;;11.61;63.89;99960.00;5000707;28;97046;-82
2023/04/16 01:19:35;;;;;;;28.50;25.50;;;;;;;11.58;63.91;99953.09;5016021;28;101797;-84
2023/04/16 01:22:02;;;;;;;27.83;24.95;;;;;;;11.52;63.67;99959.47;5047834;27;101564;-82
2023/04/16 01:24:27;;;;;;;29.15;26.08;;;;;;;11.46;63.10;99949.22;5007863;28;97236;-88
2023/04/16 01:26:53;;;;;;;27.45;24.52;;;;;;;11.60;63.26;99969.63;5005613;28;97118;-82
2023/04/16 01:29:18;;;;;;;28.52;25.67;;;;;;;11.55;63.14;99969.84;5030748;27;101271;-82
2023/04/16 01:31:45;;;;;;;30.92;25.52;;;;;;;11.45;63.52;99962.41;5000417;28;101541;-81
2023/04/16 01:34:36;;;;;;;28.25;25.30;;;;;;;11.42;63.63;99965.19;5019280;28;97331;-82
2023/04/16 01:37:02;;;;;;;29.38;26.35;;;;;;;11.25;63.48;99942.25;5001075;28;97057;-81
2023/04/16 01:39:28;;;;;;;29.48;26.42;;;;;;;11.48;63.37;99964.91;5000550;28;101730;-85
2023/04/16 01:41:56;;;;;;;29.77;26.77;;;;;;;11.39;63.35;99967.94;5016994;28;101663;-82
2023/04/16 01:44:22;;;;;;;29.17;26.17;;;;;;;11.47;63.25;99977.22;5000727;28;96811;-82
2023/04/16 01:46:47;;;;;;;31.25;26.38;;;;;;;11.36;63.57;99974.19;5033258;27;98053;-82
2023/04/16 01:49:14;;;;;;;28.83;25.73;;;;;;;11.18;64.00;99952.19;4984235;28;101559;-81
2023/04/16 01:51:40;;;;;;;30.38;27.20;;;;;;;11.25;64.13;99979.88;5020866;28;101954;-82
2023/04/16 01:54:06;;;;;;;29.05;26.15;;;;;;;11.18;64.22;99983.69;5003468;28;96770;-82
2023/04/16 01:56:32;;;;;;;28.33;25.42;;;;;;;11.23;64.00;99979.13;5016876;28;97009;-83
2023/04/16 01:58:57;;;;;;;29.73;26.73;;;;;;;11.07;64.02;99971.00;5013251;28;101511;-83
2023/04/16 02:01:26;;;;;;;30.17;26.70;;;;;;;11.13;64.27;99985.66;5016212;28;100493;-83
2023/04/16 02:03:52;;;;;;;28.50;25.67;;;;;;;11.04;63.95;99971.13;5017020;28;96865;-82
2023/04/16 02:06:18;;;;;;;29.25;26.15;;;;;;;11.17;63.65;99989.00;5015301;28;97035;-82
2023/04/16 02:08:45;;;;;;;29.75;26.63;;;;;;;11.12;63.65;99988.38;5016439;28;101626;-83
2023/04/16 02:11:14;;;;;;;29.45;26.30;;;;;;;11.01;63.86;99973.03;5016497;28;100953;-82
2023/04/16 02:13:41;;;;;;;30.52;26.55;;;;;;;11.19;63.48;99977.53;5020677;27;97172;-82
2023/04/16 02:16:06;;;;;;;29.52;26.40;;;;;;;11.20;63.67;99975.75;5012970;28;97493;-82
2023/04/16 02:18:42;;;;;;;30.05;26.98;;;;;;;10.98;63.42;99949.53;5033657;27;100984;-82
2023/04/16 02:21:08;;;;;;;30.02;26.88;;;;;;;11.19;63.56;99976.66;5008304;28;101483;-82
2023/04/16 02:23:34;;;;;;;33.42;25.92;;;;;;;11.08;63.05;99969.22;5013307;27;97318;-82
2023/04/16 02:26:01;;;;;;;29.67;26.55;;;;;;;11.04;63.48;99981.63;5022428;28;97721;-81
2023/04/16 02:28:27;;;;;;;28.48;25.48;;;;;;;11.00;63.61;99984.47;5024666;27;101349;-83
2023/04/16 02:30:53;;;;;;;29.42;25.65;;;;;;;10.93;63.69;99973.34;5008734;28;97280;-83
2023/04/16 02:33:20;;;;;;;29.67;26.52;;;;;;;10.88;64.31;99986.69;5037259;27;96921;-82
2023/04/16 02:35:56;;;;;;;32.25;25.90;;;;;;;10.75;64.04;99969.69;5003968;28;97035;-82
2023/04/16 02:38:21;;;;;;;30.83;27.63;;;;;;;10.65;63.79;99966.59;5010541;28;101451;-83
2023/04/16 02:40:47;;;;;;;35.88;28.05;;;;;;;10.73;64.46;99973.28;5032152;28;98025;-82
2023/04/16 02:43:14;;;;;;;32.42;29.10;;;;;;;10.92;64.20;99997.91;4997849;28;96996;-83
2023/04/16 02:45:39;;;;;;;31.88;28.77;;;;;;;10.77;64.54;99993.28;4997015;28;96937;-82
2023/04/16 02:48:07;;;;;;;32.05;28.92;;;;;;;10.70;64.66;100012.81;5014120;28;101509;-82
2023/04/16 02:50:33;;;;;;;32.10;28.85;;;;;;;10.77;64.66;100017.75;5014712;28;102144;-83
2023/04/16 02:52:58;;;;;;;31.08;27.38;;;;;;;10.76;64.81;100017.81;5031084;27;97353;-84
2023/04/16 02:55:24;;;;;;;32.08;27.92;;;;;;;10.68;64.52;100002.38;5014788;28;97288;-85
2023/04/16 02:57:51;;;;;;;30.00;27.02;;;;;;;10.81;63.94;100024.59;5032273;28;97338;-82
2023/04/16 03:00:17;;;;;;;29.63;26.55;;;;;;;10.68;64.47;100014.66;5015954;28;99073;-82
2023/04/16 03:02:43;;;;;;;31.67;28.60;;;;;;;10.78;64.37;100029.09;4998037;28;96772;-82
2023/04/16 03:05:09;;;;;;;31.42;28.15;;;;;;;10.80;63.70;100024.66;5014817;28;97150;-82
2023/04/16 03:07:34;;;;;;;30.10;27.08;;;;;;;10.62;63.84;100008.72;5043440;27;97948;-82
2023/04/16 03:10:00;;;;;;;30.65;27.60;;;;;;;10.53;64.11;100011.72;5007975;28;98431;-83
2023/04/16 03:12:26;;;;;;;31.75;28.35;;;;;;;10.35;64.19;99987.00;4997615;28;97207;-82
2023/04/16 03:14:51;;;;;;;28.95;26.05;;;;;;;10.63;64.08;100026.16;5014068;28;97425;-82
2023/04/16 03:17:17;;;;;;;30.33;27.23;;;;;;;10.70;63.73;100039.06;5013550;28;101509;-82
2023/04/16 03:19:42;;;;;;;28.88;26.08;;;;;;;10.55;63.96;100037.88;5015478;28;101428;-82
2023/04/16 03:22:08;;;;;;;29.70;26.52;;;;;;;10.62;63.94;100045.47;4998134;28;97140;-82
2023/04/16 03:24:33;;;;;;;29.65;26.73;;;;;;;10.71;63.96;100041.63;5020461;28;97076;-86
2023/04/16 03:27:00;;;;;;;29.02;26.13;;;;;;;10.63;64.38;100054.19;4997676;28;101028;-82
2023/04/16 03:29:26;;;;;;;31.63;26.33;;;;;;;10.45;64.12;100012.91;5030364;27;101461;-82
2023/04/16 03:31:53;;;;;;;28.52;25.58;;;;;;;10.63;64.20;100047.16;5006814;28;97779;-82
2023/04/16 03:34:20;;;;;;;29.63;26.52;;;;;;;10.66;64.01;100035.69;4994565;28;98096;-82
2023/04/16 03:36:46;;;;;;;28.85;26.08;;;;;;;10.66;64.27;100056.69;5002225;28;101482;-81
2023/04/16 03:39:12;;;;;;;29.27;25.50;;;;;;;10.46;64.64;100041.72;5014942;28;101380;-83
2023/04/16 03:41:38;;;;;;;31.55;26.80;;;;;;;10.50;64.80;100059.06;5030722;28;97922;-82
2023/04/16 03:44:03;;;;;;;29.08;26.08;;;;;;;10.57;64.83;100059.69;5015336;28;97128;-82
2023/04/16 03:46:29;;;;;;;29.52;26.60;;;;;;;10.56;64.54;100063.19;4998680;28;100742;-82
2023/04/16 03:48:55;;;;;;;31.25;27.02;;;;;;;10.60;64.58;100062.19;5023896;28;97386;-83
2023/04/16 03:51:21;;;;;;;29.88;26.67;;;;;;;10.69;64.32;100058.34;5010859;28;97009;-82
2023/04/16 03:53:46;;;;;;;31.58;28.25;;;;;;;10.57;64.54;100055.28;5028028;28;97152;-82
2023/04/16 03:56:13;;;;;;;30.73;26.90;;;;;;;10.47;64.49;100045.19;5015093;28;100659;-82
2023/04/16 03:58:38;;;;;;;29.88;26.70;;;;;;;10.56;64.75;100071.06;5020693;28;98311;-83
2023/04/16 04:01:04;;;;;;;33.63;27.15;;;;;;;10.36;65.20;100059.56;5048896;27;97971;-83
2023/04/16 04:03:29;;;;;;;31.80;27.45;;;;;;;10.52;64.81;100078.22;5013072;28;96848;-82
2023/04/16 04:05:55;;;;;;;37.30;28.17;;;;;;;10.50;65.00;100087.94;4993856;28;102168;-83
2023/04/16 04:08:25;;;;;;;32.25;27.27;;;;;;;10.56;64.31;100094.69;5004631;28;101534;-82
2023/04/16 04:10:51;;;;;;;30.85;27.58;;;;;;;10.45;65.04;100089.00;5048717;27;96914;-82
2023/04/16 04:13:19;;;;;;;32.13;27.50;;;;;;;10.36;65.02;100077.09;5015308;28;97085;-83
2023/04/16 04:15:44;;;;;;;30.50;27.33;;;;;;;10.51;65.04;100100.13;5013584;28;101822;-83
2023/04/16 04:18:10;;;;;;;31.05;27.75;;;;;;;10.62;65.10;100102.38;5003465;28;101650;-83
2023/04/16 04:20:39;;;;;;;31.90;27.52;;;;;;;10.50;65.05;100108.06;5050988;27;96749;-88
2023/04/16 04:23:05;;;;;;;29.67;26.67;;;;;;;10.53;64.98;100102.69;5015214;28;97160;-82
2023/04/16 04:25:31;;;;;;;30.40;27.25;;;;;;;10.54;64.98;100112.28;4985740;28;100611;-83
2023/04/16 04:27:57;;;;;;;29.35;26.40;;;;;;;10.51;65.23;100110.63;5014202;28;101358;-83
2023/04/16 04:30:23;;;;;;;30.48;27.38;;;;;;;10.37;65.22;100079.66;5023519;28;97211;-82
2023/04/16 04:32:48;;;;;;;32.33;27.38;;;;;;;10.50;65.56;100116.81;5014275;28;97097;-82
2023/04/16 04:35:15;;;;;;;34.35;28.30;;;;;;;10.64;64.87;100111.00;5013719;28;101298;-82
2023/04/16 04:37:40;;;;;;;32.03;27.83;;;;;;;10.57;65.24;100107.78;5016953;28;97983;-82
2023/04/16 04:40:16;;;;;;;30.30;27.02;;;;;;;10.52;65.18;100093.09;5013934;28;96888;-82
2023/04/16 04:42:42;;;;;;;29.92;26.80;;;;;;;10.72;64.97;100113.38;5014615;28;97020;-83
2023/04/16 04:45:09;;;;;;;32.47;28.65;;;;;;;10.59;64.87;100102.47;4998055;28;101270;-83
2023/04/16 04:47:34;;;;;;;30.00;26.90;;;;;;;10.43;65.38;100089.91;5013268;28;99998;-88
2023/04/16 04:50:00;;;;;;;31.40;28.15;;;;;;;10.36;65.06;100058.72;5017102;28;96967;-82
2023/04/16 04:52:26;;;;;;;32.30;27.67;;;;;;;10.75;65.01;100114.09;5004837;28;96895;-83
2023/04/16 04:54:52;;;;;;;29.63;26.30;;;;;;;10.73;64.95;100117.69;4995775;28;101533;-82
2023/04/16 04:57:17;;;;;;;32.00;28.60;;;;;;;10.68;64.80;100104.75;5007287;28;101802;-82
2023/04/16 04:59:43;;;;;;;35.38;29.27;;;;;;;10.81;64.52;100111.22;5011914;28;96661;-82
2023/04/16 05:02:10;;;;;;;35.95;29.65;;;;;;;10.81;64.79;100124.34;5031392;28;97070;-83
2023/04/16 05:04:36;;;;;;;35.13;29.25;;;;;;;10.84;65.11;100121.63;5001219;28;101845;-87
2023/04/16 05:07:01;;;;;;;35.60;30.58;;;;;;;10.78;65.16;100129.72;5018519;27;101207;-83
2023/04/16 05:09:27;;;;;;;36.97;30.95;;;;;;;10.63;64.96;100098.81;5013705;28;96976;-83
2023/04/16 05:11:53;;;;;;;36.75;30.80;;;;;;;10.78;65.27;100134.97;4996429;28;97347;-83
2023/04/16 05:14:18;;;;;;;33.95;28.88;;;;;;;10.84;65.34;100141.78;4993708;28;101612;-83
2023/04/16 05:16:44;;;;;;;37.42;31.73;;;;;;;10.80;64.83;100129.69;5000718;28;101624;-83
2023/04/16 05:19:09;;;;;;;33.50;29.90;;;;;;;10.84;65.16;100145.25;5014331;28;97266;-84
2023/04/16 05:21:35;;;;;;;33.88;29.77;;;;;;;10.88;64.96;100144.25;4997608;28;97201;-89
2023/04/16 05:24:00;;;;;;;33.25;29.73;;;;;;;10.90;65.44;100152.03;5009557;28;98422;-83
2023/04/16 05:26:26;;;;;;;35.50;29.67;;;;;;;10.72;65.98;100139.63;5004966;28;101614;-83
2023/04/16 05:28:52;;;;;;;35.78;30.27;;;;;;;10.95;65.61;100163.25;5012617;28;97393;-83
2023/04/16 05:31:17;;;;;;;34.60;30.90;;;;;;;11.02;65.41;100167.31;5011839;28;97154;-83
2023/04/16 05:33:43;;;;;;;38.13;30.95;;;;;;;11.00;65.43;100155.19;5001387;28;102082;-83
2023/04/16 05:36:08;;;;;;;35.33;30.50;;;;;;;11.10;65.59;100167.03;5029614;28;97877;-83
2023/04/16 05:38:33;;;;;;;33.88;30.23;;;;;;;11.18;65.62;100161.50;5009632;28;97226;-83
2023/04/16 05:40:59;;;;;;;33.10;29.45;;;;;;;11.22;65.54;100170.97;5039638;27;97075;-83
2023/04/16 05:43:24;;;;;;;34.08;29.30;;;;;;;11.26;65.43;100172.56;5013030;28;101654;-84
2023/04/16 05:45:50;;;;;;;32.47;28.90;;;;;;;11.25;65.38;100168.22;5012246;28;101790;-82
2023/04/16 05:48:15;;;;;;;34.90;31.05;;;;;;;11.26;65.41;100159.44;5017139;28;96691;-83
2023/04/16 05:50:41;;;;;;;37.30;31.10;;;;;;;11.45;65.16;100188.47;5016642;28;96963;-83
2023/04/16 05:53:07;;;;;;;35.88;30.48;;;;;;;11.26;65.15;100164.69;5018799;28;101520;-83
2023/04/16 05:55:35;;;;;;;34.63;30.52;;;;;;;11.42;65.61;100199.94;5027060;28;101678;-83
2023/04/16 05:58:03;;;;;;;33.25;29.67;;;;;;;11.35;65.60;100182.72;5014417;28;96939;-83
2023/04/16 06:00:29;;;;;;;32.65;29.10;;;;;;;11.47;65.47;100191.91;5000893;28;97055;-84
2023/04/16 06:02:55;;;;;;;32.75;28.02;;;;;;;11.49;65.35;100193.53;5009385;28;101376;-83
2023/04/16 06:05:20;;;;;;;33.60;29.38;;;;;;;11.44;65.42;100177.09;5013317;28;101270;-83
2023/04/16 06:07:46;;;;;;;31.77;28.45;;;;;;;11.67;65.13;100199.84;4997096;28;97058;-83
2023/04/16 06:10:11;;;;;;;33.45;29.95;;;;;;;11.78;64.92;100200.25;5038726;27;96958;-84
2023/04/16 06:12:37;;;;;;;34.88;27.30;;;;;;;11.79;65.42;100188.81;5022299;28;101473;-84
2023/04/16 06:15:03;;;;;;;32.65;28.77;;;;;;;11.75;65.28;100183.72;5001648;28;101047;-83
2023/04/16 06:17:29;;;;;;;32.05;28.85;;;;;;;12.12;64.48;100212.03;5014629;28;97456;-83
2023/04/16 06:19:54;;;;;;;33.55;28.70;;;;;;;12.16;64.30;100215.41;4998351;28;97086;-84
2023/04/16 06:22:20;;;;;;;35.10;29.92;;;;;;;12.06;64.95;100217.56;5011825;28;101607;-83
2023/04/16 06:24:45;;;;;;;35.47;31.73;;;;;;;12.15;65.17;100214.53;5018128;28;101440;-83
2023/04/16 06:27:11;;;;;;;34.63;31.20;;;;;;;12.13;65.28;100210.25;5031341;28;97175;-83
2023/04/16 06:29:36;;;;;;;36.42;32.42;;;;;;;12.21;64.57;100223.94;5028046;28;97791;-83
2023/04/16 06:32:02;;;;;;;35.60;31.48;;;;;;;12.09;64.66;100230.56;5013971;28;97582;-83
2023/04/16 06:34:28;;;;;;;34.70;30.98;;;;;;;12.20;64.23;100228.34;5014465;28;101454;-84
2023/04/16 06:36:54;;;;;;;35.10;31.33;;;;;;;12.13;64.74;100241.81;5050376;27;97064;-85
2023/04/16 06:39:20;;;;;;;34.97;31.25;;;;;;;12.02;64.85;100241.44;5016754;28;97007;-83
2023/04/16 06:41:49;;;;;;;36.42;30.83;;;;;;;11.80;64.48;100194.91;5015258;28;98010;-83
2023/04/16 06:44:16;;;;;;;36.33;31.85;;;;;;;12.05;64.81;100231.63;5016530;28;100979;-83
2023/04/16 06:46:42;;;;;;;35.03;30.58;;;;;;;12.07;65.08;100236.81;5012172;28;96775;-83
2023/04/16 06:49:07;;;;;;;34.45;30.75;;;;;;;12.14;64.65;100233.88;4999462;28;97285;-82
2023/04/16 06:51:33;;;;;;;35.05;29.80;;;;;;;12.17;64.84;100219.75;5014241;28;101610;-82
2023/04/16 06:53:58;;;;;;;34.92;31.20;;;;;;;12.22;64.94;100223.88;5001754;28;103202;-85
2023/04/16 06:56:24;;;;;;;33.42;29.95;;;;;;;12.34;65.02;100224.28;5014978;28;97164;-85
2023/04/16 06:58:50;;;;;;;32.58;29.15;;;;;;;12.48;64.79;100221.03;5014325;28;97513;-83
2023/04/16 07:01:16;;;;;;;32.80;29.48;;;;;;;12.72;64.67;100227.88;5003579;28;101465;-86
2023/04/16 07:03:41;;;;;;;33.78;30.23;;;;;;;12.77;64.08;100235.56;5030405;28;100970;-88
2023/04/16 07:06:08;;;;;;;34.08;30.52;;;;;;;12.85;63.31;100241.34;5008354;28;97165;-82
2023/04/16 07:08:34;;;;;;;36.05;31.25;;;;;;;12.82;63.34;100244.97;5012480;28;97487;-83
2023/04/16 07:10:59;;;;;;;34.00;30.40;;;;;;;12.62;63.49;100226.56;5031713;27;101692;-83
2023/04/16 07:13:25;;;;;;;34.25;30.63;;;;;;;12.77;63.47;100240.84;5012184;28;101030;-83
2023/04/16 07:15:50;;;;;;;34.53;30.92;;;;;;;13.10;63.34;100257.78;5015397;28;97180;-83
2023/04/16 07:18:16;;;;;;;35.33;31.67;;;;;;;13.50;62.80;100255.13;5015689;28;96874;-84
2023/04/16 07:20:42;;;;;;;34.45;30.95;;;;;;;14.10;62.24;100258.34;4998261;28;101161;-87
2023/04/16 07:23:07;;;;;;;32.50;29.08;;;;;;;14.67;60.43;100251.06;4990424;28;100118;-82
2023/04/16 07:25:33;;;;;;;34.05;30.48;;;;;;;15.19;59.35;100243.97;5018437;28;97091;-82
2023/04/16 07:27:58;;;;;;;35.58;31.63;;;;;;;15.31;58.75;100249.41;5005822;28;97397;-84
2023/04/16 07:30:24;;;;;;;32.35;28.95;;;;;;;15.79;57.96;100257.38;5013727;28;101222;-83
2023/04/16 07:32:50;;;;;;;35.20;31.40;;;;;;;16.03;56.58;100263.94;5014118;28;101399;-82
2023/04/16 07:35:16;;;;;;;32.10;28.92;;;;;;;15.98;56.53;100262.50;5019341;28;97242;-83
2023/04/16 07:37:41;;;;;;;33.25;29.85;;;;;;;16.16;55.62;100269.38;5040137;27;96931;-82
2023/04/16 07:40:07;;;;;;;32.33;29.08;;;;;;;16.32;55.00;100271.13;5054314;27;98603;-83
2023/04/16 07:42:33;;;;;;;31.17;28.20;;;;;;;16.59;54.59;100253.59;5023764;28;97909;-83
2023/04/16 07:44:58;;;;;;;32.83;29.63;;;;;;;16.93;53.67;100267.50;5024840;28;97877;-83
2023/04/16 07:47:25;;;;;;;32.55;29.25;;;;;;;17.31;53.60;100270.41;5015987;28;97287;-83
2023/04/16 07:49:52;;;;;;;30.77;27.45;;;;;;;17.96;52.59;100275.13;5018450;28;101462;-84
2023/04/16 07:52:18;;;;;;;32.30;29.15;;;;;;;18.38;51.65;100270.56;5030837;27;101689;-83
2023/04/16 07:54:44;;;;;;;32.63;29.52;;;;;;;18.89;49.96;100264.50;5007072;28;97312;-87
2023/04/16 07:57:11;;;;;;;32.38;29.42;;;;;;;19.07;48.94;100270.34;5030119;28;97528;-83
2023/04/16 07:59:36;;;;;;;29.55;26.65;;;;;;;18.96;49.11;100273.72;4997094;28;102130;-83
2023/04/16 08:02:03;;;;;;;30.52;27.67;;;;;;;18.85;49.22;100270.97;5013699;28;100962;-83
2023/04/16 08:04:29;;;;;;;31.63;28.48;;;;;;;19.39;48.56;100279.53;5014287;28;97520;-84
2023/04/16 08:06:55;;;;;;;31.13;28.10;;;;;;;19.98;47.35;100270.84;5020333;28;96969;-85
2023/04/16 08:09:22;;;;;;;28.65;26.05;;;;;;;20.41;47.15;100277.47;4997002;28;101683;-83
2023/04/16 08:11:48;;;;;;;30.63;27.42;;;;;;;20.79;46.03;100259.38;4989938;27;101043;-88
2023/04/16 08:14:15;;;;;;;29.73;26.75;;;;;;;21.22;45.47;100264.03;5010599;27;97429;-87
2023/04/16 08:16:41;;;;;;;28.92;26.10;;;;;;;21.54;44.24;100271.31;5006307;28;96937;-84
2023/04/16 08:19:07;;;;;;;28.08;25.60;;;;;;;21.83;43.81;100263.59;5049504;27;100268;-85
2023/04/16 08:21:32;;;;;;;31.88;28.88;;;;;;;22.04;43.04;100236.09;5001260;28;101212;-85
2023/04/16 08:23:58;;;;;;;42.75;38.28;;;;;;;22.49;42.35;100270.66;5008837;27;97087;-87
2023/04/16 08:26:25;;;;;;;62.33;55.80;;;;;;;22.69;41.30;100248.41;5017400;27;96914;-86
2023/04/16 08:28:50;;;;;;;105.13;88.43;;;;;;;23.11;40.86;100269.78;5026786;28;97977;-86
2023/04/16 08:31:16;;;;;;;38.17;34.20;;;;;;;23.57;39.94;100265.72;5007197;28;101237;-84
2023/04/16 08:33:42;;;;;;;34.88;31.40;;;;;;;23.96;39.78;100276.53;5023724;27;96960;-83
2023/04/16 08:36:08;;;;;;;30.48;27.63;;;;;;;24.28;39.08;100264.69;5028308;27;97139;-86
2023/04/16 08:38:34;;;;;;;41.33;37.08;;;;;;;24.49;38.72;100272.59;5024850;27;99529;-87
2023/04/16 08:41:02;;;;;;;37.33;33.72;;;;;;;24.39;38.55;100238.56;5003003;28;100939;-89
2023/04/16 08:43:32;;;;;;;30.92;28.23;;;;;;;25.00;38.24;100258.78;5010131;28;97179;-91
2023/04/16 08:45:58;;;;;;;28.00;25.48;;;;;;;25.47;37.67;100271.34;5014133;27;97163;-89
2023/04/16 08:48:24;;;;;;;27.33;25.02;;;;;;;25.75;36.87;100275.72;5009855;28;101914;-85
2023/04/16 08:50:52;;;;;;;28.20;25.80;;;;;;;25.60;36.78;100258.41;5013692;28;101308;-85
2023/04/16 08:53:18;;;;;;;28.05;25.67;;;;;;;25.92;36.69;100279.44;5013784;28;97372;-88
2023/04/16 08:55:48;;;;;;;26.38;23.95;;;;;;;26.30;35.83;100285.53;5012261;28;97400;-84
2023/04/16 08:58:18;;;;;;;27.52;24.92;;;;;;;26.54;34.80;100266.06;5011412;28;102278;-86
2023/04/16 09:00:45;;;;;;;29.13;26.48;;;;;;;26.63;34.28;100266.97;5025432;28;102134;-85
2023/04/16 09:03:11;;;;;;;25.92;23.63;;;;;;;26.50;34.39;100253.94;5017600;28;97335;-85
2023/04/16 09:05:37;;;;;;;26.85;24.58;;;;;;;26.84;33.95;100248.59;5010542;28;97121;-85
2023/04/16 09:08:06;;;;;;;25.55;23.45;;;;;;;27.07;34.61;100285.75;5038655;27;101360;-86
2023/04/16 09:10:32;;;;;;;27.75;25.35;;;;;;;27.01;33.78;100251.41;5026168;28;97574;-88
2023/04/16 09:13:00;;;;;;;26.73;24.38;;;;;;;27.55;33.03;100281.66;5008977;27;97101;-86
2023/04/16 09:15:25;;;;;;;25.92;23.80;;;;;;;27.51;32.80;100272.19;5014042;28;97274;-87
2023/04/16 09:17:58;;;;;;;25.10;23.15;;;;;;;26.59;32.74;100287.16;5012980;28;101537;-88
2023/04/16 09:20:24;;;;;;;25.48;23.05;;;;;;;25.48;35.46;100284.66;5015216;28;100801;-92
2023/04/16 09:22:50;;;;;;;24.50;22.50;;;;;;;26.15;35.23;100292.44;5013758;27;97365;-84
2023/04/16 09:25:20;;;;;;;23.08;20.58;;;;;;;26.85;33.99;100293.38;5013970;27;97337;-85
2023/04/16 09:27:50;;;;;;;20.95;19.25;;;;;;;26.81;33.59;100281.22;5012835;28;101601;-87
2023/04/16 09:30:39;;;;;;;19.63;18.20;;;;;;;26.80;32.14;100262.56;5014675;27;101190;-84
2023/04/16 09:33:32;;;;;;;18.42;17.13;;;;;;;27.21;31.71;100262.81;4954091;28;97347;-85
2023/04/16 09:36:08;;;;;;;19.77;18.27;;;;;;;26.90;31.40;100267.81;4965182;28;97764;-86
2023/04/16 09:39:00;;;;;;;17.13;15.82;;;;;;;27.14;31.35;100285.97;4970028;28;98617;-85
2023/04/16 09:41:28;;;;;;;17.83;16.42;;;;;;;27.22;31.59;100261.78;4955116;28;99786;-85
2023/04/16 09:44:02;;;;;;;16.88;15.73;;;;;;;27.20;30.32;100251.19;4966491;28;97462;-86
2023/04/16 09:46:30;;;;;;;17.90;16.40;;;;;;;26.74;31.41;100279.34;4966464;28;97581;-85
2023/04/16 09:48:57;;;;;;;19.25;17.75;;;;;;;26.52;32.15;100275.31;4966387;28;99419;-85
2023/04/16 09:51:37;;;;;;;18.67;17.23;;;;;;;26.05;32.65;100270.16;4956282;28;101258;-86
2023/04/16 09:54:13;;;;;;;18.57;17.20;;;;;;;25.72;33.09;100256.34;4945922;28;97679;-84
2023/04/16 09:56:43;;;;;;;17.85;16.55;;;;;;;25.79;32.78;100262.81;4949363;28;97084;-84
2023/04/16 09:59:22;;;;;;;17.15;15.73;;;;;;;25.92;32.92;100282.16;4968572;28;101264;-84
2023/04/16 10:02:00;;;;;;;16.15;15.05;;;;;;;25.80;33.12;100294.06;4982094;28;101309;-84
2023/04/16 10:04:26;;;;;;;16.40;15.40;;;;;;;25.82;33.33;100299.28;4939327;28;98137;-83
2023/04/16 10:07:05;;;;;;;15.20;14.02;;;;;;;25.57;33.20;100299.03;4933370;28;97439;-83
2023/04/16 10:09:32;;;;;;;16.83;15.48;;;;;;;25.35;33.85;100299.41;4966005;27;101698;-83
2023/04/16 10:11:58;;;;;;;15.95;14.85;;;;;;;25.16;33.46;100287.75;5044209;27;97836;-82
2023/04/16 10:14:23;;;;;;;17.20;16.10;;;;;;;24.49;33.42;100300.28;5038869;27;97284;-84
2023/04/16 10:16:49;;;;;;;17.27;16.08;;;;;;;23.67;34.16;100304.09;5011996;27;97268;-85
2023/04/16 10:19:15;;;;;;;17.20;15.88;;;;;;;23.07;35.61;100308.53;5009518;28;101572;-86
2023/04/16 10:21:41;;;;;;;17.02;15.90;;;;;;;22.54;36.34;100285.34;5011713;28;101646;-82
2023/04/16 10:24:07;;;;;;;16.40;15.40;;;;;;;22.15;36.65;100284.16;5007536;28;97218;-85
2023/04/16 10:26:34;;;;;;;16.60;15.50;;;;;;;22.22;37.11;100296.06;5015939;27;97505;-86
2023/04/16 10:29:00;;;;;;;16.17;15.07;;;;;;;22.36;36.66;100297.59;5011756;28;99053;-86
2023/04/16 10:31:26;;;;;;;16.52;15.35;;;;;;;22.33;37.20;100300.50;4996291;28;102118;-87
2023/04/16 10:33:51;;;;;;;16.70;15.50;;;;;;;22.59;38.44;100315.22;5039159;27;97389;-85
2023/04/16 10:36:22;;;;;;;17.15;15.95;;;;;;;22.15;39.05;100279.66;5027464;27;97529;-85
2023/04/16 10:38:49;;;;;;;16.25;15.25;;;;;;;22.35;38.17;100301.25;5029837;27;101700;-83
2023/04/16 10:41:15;;;;;;;16.25;14.95;;;;;;;22.32;38.00;100302.34;5035981;27;101515;-84
2023/04/16 10:43:47;;;;;;;16.02;14.55;;;;;;;22.14;39.44;100275.28;5013697;28;97440;-87
2023/04/16 10:46:51;;;;;;;16.58;15.27;;;;;;;22.37;39.98;100310.84;5024800;27;96843;-88
2023/04/16 10:49:19;;;;;;;16.40;15.20;;;;;;;22.38;39.36;100296.47;4926574;28;100071;-89
2023/04/16 10:51:58;;;;;;;13.85;12.85;;;;;;;22.44;38.06;100310.31;4939277;28;100092;-90
2023/04/16 10:54:25;;;;;;;13.27;12.55;;;;;;;22.47;36.81;100297.53;4940429;28;96900;-90
2023/04/16 10:56:51;;;;;;;14.07;13.23;;;;;;;22.37;36.51;100308.16;4971975;28;97932;-89
2023/04/16 10:59:20;;;;;;;14.30;13.32;;;;;;;22.04;36.23;100301.06;4922586;28;100373;-86
2023/04/16 11:01:54;;;;;;;14.40;13.30;;;;;;;21.71;36.15;100312.69;4948081;28;98411;-85
2023/04/16 11:04:20;;;;;;;13.43;12.63;;;;;;;21.59;37.44;100311.88;4926167;28;97514;-86
2023/04/16 11:07:02;;;;;;;13.32;12.50;;;;;;;21.45;37.06;100304.09;4945951;28;97670;-81